createdAt,value
2022-11-29T00:01:48.274Z,12.82
2022-11-29T00:04:16.191Z,11.52
2022-11-29T00:06:44.015Z,12.65
2022-11-29T00:09:13.973Z,11.43
2022-11-29T00:12:01.275Z,7.95
2022-11-29T00:14:29.674Z,10.48
2022-11-29T00:17:02.681Z,9.98
2022-11-29T00:19:32.581Z,8.85
2022-11-29T00:22:01.383Z,7.95
2022-11-29T00:24:31.794Z,7.00
2022-11-29T00:26:59.876Z,8.35
2022-11-29T00:29:29.130Z,8.88
2022-11-29T00:31:56.994Z,10.93
2022-11-29T00:34:24.949Z,5.60
2022-11-29T00:36:52.775Z,6.13
2022-11-29T00:39:20.663Z,8.38
2022-11-29T00:41:48.740Z,8.07
2022-11-29T00:44:20.065Z,6.72
2022-11-29T00:46:49.570Z,9.30
2022-11-29T00:49:18.010Z,7.43
2022-11-29T00:51:46.573Z,6.82
2022-11-29T00:54:15.829Z,9.32
2022-11-29T00:56:43.607Z,6.22
2022-11-29T00:59:11.515Z,7.30
2022-11-29T01:01:39.645Z,6.13
2022-11-29T01:04:07.732Z,8.85
2022-11-29T01:06:35.467Z,6.43
2022-11-29T01:09:03.837Z,5.68
2022-11-29T01:11:31.653Z,7.35
2022-11-29T01:14:01.817Z,5.93
2022-11-29T01:16:30.838Z,7.70
2022-11-29T01:18:58.567Z,5.93
2022-11-29T01:21:26.605Z,7.32
2022-11-29T01:23:55.000Z,7.00
2022-11-29T01:26:28.568Z,8.35
2022-11-29T01:28:58.009Z,6.22
2022-11-29T01:31:28.601Z,7.10
2022-11-29T01:33:59.681Z,5.20
2022-11-29T01:36:27.954Z,6.65
2022-11-29T01:38:56.188Z,6.90
2022-11-29T01:41:27.417Z,6.10
2022-11-29T01:44:13.922Z,6.57
2022-11-29T01:46:44.768Z,6.82
2022-11-29T01:49:16.295Z,5.05
2022-11-29T01:51:46.704Z,9.68
2022-11-29T01:54:17.983Z,6.38
2022-11-29T01:56:47.243Z,7.60
2022-11-29T01:59:20.962Z,8.40
2022-11-29T02:01:49.020Z,7.18
2022-11-29T02:04:18.836Z,8.73
2022-11-29T02:06:47.164Z,5.97
2022-11-29T02:09:19.971Z,5.05
2022-11-29T02:11:47.812Z,6.05
2022-11-29T02:14:43.771Z,4.30
2022-11-29T02:17:21.546Z,6.38
2022-11-29T02:20:07.383Z,5.15
2022-11-29T02:23:22.752Z,9.45
2022-11-29T02:26:09.534Z,5.88
2022-11-29T02:29:00.002Z,4.95
2022-11-29T02:31:52.838Z,5.82
2022-11-29T02:34:23.417Z,4.38
2022-11-29T02:37:07.165Z,7.20
2022-11-29T02:39:56.953Z,6.90
2022-11-29T02:42:56.050Z,5.95
2022-11-29T02:45:38.858Z,5.78
2022-11-29T02:48:09.709Z,4.25
2022-11-29T02:51:07.013Z,4.90
2022-11-29T02:53:56.951Z,6.53
2022-11-29T02:56:55.543Z,5.22
2022-11-29T03:00:08.044Z,6.10
2022-11-29T03:02:52.064Z,5.45
2022-11-29T03:05:49.549Z,5.03
2022-11-29T03:08:29.345Z,4.88
2022-11-29T03:11:08.556Z,5.10
2022-11-29T03:14:04.554Z,5.50
2022-11-29T03:16:59.182Z,4.30
2022-11-29T03:20:00.330Z,4.53
2022-11-29T03:22:28.222Z,5.05
2022-11-29T03:25:06.053Z,4.50
2022-11-29T03:27:44.092Z,5.63
2022-11-29T03:30:14.405Z,5.07
2022-11-29T03:32:55.433Z,6.53
2022-11-29T03:35:37.951Z,4.85
2022-11-29T03:38:36.391Z,4.78
2022-11-29T03:41:22.479Z,3.83
2022-11-29T03:44:03.253Z,4.47
2022-11-29T03:47:04.971Z,5.85
2022-11-29T03:49:43.802Z,5.65
2022-11-29T03:52:33.299Z,4.63
2022-11-29T03:55:12.168Z,5.88
2022-11-29T03:58:19.959Z,5.30
2022-11-29T04:01:43.412Z,6.45
2022-11-29T04:04:45.571Z,4.78
2022-11-29T04:07:28.712Z,4.28
2022-11-29T04:10:33.818Z,5.18
2022-11-29T04:13:31.217Z,5.03
2022-11-29T04:16:24.769Z,4.95
2022-11-29T04:19:17.126Z,4.28
2022-11-29T04:21:59.592Z,4.47
2022-11-29T04:24:46.380Z,4.82
2022-11-29T04:27:33.334Z,4.47
2022-11-29T04:30:25.136Z,4.82
2022-11-29T04:33:26.768Z,4.18
2022-11-29T04:36:16.802Z,6.03
2022-11-29T04:38:55.035Z,4.47
2022-11-29T04:41:35.782Z,3.90
2022-11-29T04:44:15.375Z,4.30
2022-11-29T04:46:52.282Z,5.68
2022-11-29T04:49:38.407Z,4.40
2022-11-29T04:52:29.058Z,4.47
2022-11-29T04:54:59.893Z,4.70
2022-11-29T04:57:33.498Z,6.00
2022-11-29T05:00:11.663Z,4.00
2022-11-29T05:02:59.639Z,6.28
2022-11-29T05:05:44.467Z,4.63
2022-11-29T05:08:12.311Z,4.70
2022-11-29T05:11:08.235Z,5.38
2022-11-29T05:13:50.747Z,4.40
2022-11-29T05:16:29.703Z,4.38
2022-11-29T05:19:34.830Z,5.35
2022-11-29T05:22:11.459Z,5.93
2022-11-29T05:25:06.051Z,4.43
2022-11-29T05:27:46.469Z,5.22
2022-11-29T05:30:17.016Z,4.13
2022-11-29T05:33:36.903Z,5.03
2022-11-29T05:36:35.642Z,4.47
2022-11-29T05:39:30.368Z,6.05
2022-11-29T05:42:22.858Z,5.07
2022-11-29T05:45:08.412Z,6.80
2022-11-29T05:48:14.471Z,5.60
2022-11-29T05:53:24.372Z,15.70
2022-11-29T05:56:06.082Z,12.00
2022-11-29T05:59:04.425Z,15.38
2022-11-29T06:01:56.473Z,14.68
2022-11-29T06:04:35.746Z,23.02
2022-11-29T06:07:31.899Z,13.13
2022-11-29T06:10:15.305Z,15.15
2022-11-29T06:12:57.481Z,16.85
2022-11-29T06:16:07.436Z,11.82
2022-11-29T06:19:17.448Z,9.45
2022-11-29T06:21:54.395Z,13.52
2022-11-29T06:25:17.282Z,7.63
2022-11-29T06:28:08.560Z,8.48
2022-11-29T06:31:01.353Z,13.68
2022-11-29T06:33:32.212Z,21.05
2022-11-29T06:36:16.401Z,23.17
2022-11-29T06:38:44.417Z,18.00
2022-11-29T06:41:20.266Z,22.80
2022-11-29T06:43:48.635Z,28.05
2022-11-29T06:46:37.784Z,17.85
2022-11-29T06:49:09.741Z,25.85
2022-11-29T06:51:49.885Z,17.45
2022-11-29T06:55:00.055Z,12.82
2022-11-29T06:57:40.423Z,17.00
2022-11-29T07:00:27.807Z,21.30
2022-11-29T07:03:21.542Z,17.92
2022-11-29T07:05:49.575Z,14.00
2022-11-29T07:08:20.274Z,21.90
2022-11-29T07:10:50.388Z,16.48
2022-11-29T07:13:20.171Z,14.50
2022-11-29T07:16:28.684Z,13.52
2022-11-29T07:19:30.659Z,15.02
2022-11-29T07:22:39.691Z,21.67
2022-11-29T07:25:16.908Z,16.17
2022-11-29T07:27:47.661Z,21.33
2022-11-29T07:30:47.364Z,16.05
2022-11-29T07:33:19.880Z,14.15
2022-11-29T07:35:50.770Z,16.45
2022-11-29T07:38:34.241Z,17.77
2022-11-29T07:41:12.775Z,15.55
2022-11-29T07:44:01.912Z,16.83
2022-11-29T07:46:30.399Z,15.57
2022-11-29T07:48:58.585Z,9.88
2022-11-29T07:51:26.582Z,13.55
2022-11-29T07:53:54.312Z,15.32
2022-11-29T07:56:22.376Z,17.60
2022-11-29T07:58:50.333Z,10.00
2022-11-29T08:01:18.389Z,14.65
2022-11-29T08:03:46.737Z,13.80
2022-11-29T08:06:14.705Z,12.10
2022-11-29T08:08:44.315Z,10.57
2022-11-29T08:11:13.014Z,8.40
2022-11-29T08:13:41.042Z,14.30
2022-11-29T08:16:09.056Z,11.88
2022-11-29T08:18:40.096Z,9.70
2022-11-29T08:21:08.957Z,16.13
2022-11-29T08:23:36.946Z,11.70
2022-11-29T08:26:05.132Z,10.65
2022-11-29T08:28:32.863Z,14.20
2022-11-29T08:31:05.336Z,12.35
2022-11-29T08:33:35.232Z,9.55
2022-11-29T08:36:21.772Z,8.27
2022-11-29T08:38:51.018Z,10.07
2022-11-29T08:41:21.745Z,12.25
2022-11-29T08:43:49.417Z,7.75
2022-11-29T08:46:18.909Z,8.45
2022-11-29T08:48:47.800Z,12.38
2022-11-29T08:51:16.081Z,8.82
2022-11-29T08:53:44.997Z,8.48
2022-11-29T08:57:04.442Z,13.10
2022-11-29T08:59:03.337Z,24.08
2022-11-29T09:01:31.645Z,9.13
2022-11-29T09:03:59.772Z,7.57
2022-11-29T09:06:32.932Z,9.07
2022-11-29T09:09:01.698Z,11.38
2022-11-29T09:11:30.646Z,8.23
2022-11-29T09:14:00.885Z,9.10
2022-11-29T09:16:30.763Z,9.45
2022-11-29T09:18:58.647Z,8.50
2022-11-29T09:21:29.262Z,9.55
2022-11-29T09:24:00.069Z,13.15
2022-11-29T09:26:30.401Z,12.27
2022-11-29T09:29:01.460Z,19.73
2022-11-29T09:31:30.490Z,14.65
2022-11-29T09:33:58.542Z,16.50
2022-11-29T09:36:28.839Z,14.23
2022-11-29T09:38:58.400Z,15.63
2022-11-29T09:41:34.975Z,19.60
2022-11-29T09:44:21.645Z,10.60
2022-11-29T09:47:14.139Z,11.65
2022-11-29T09:50:04.177Z,14.18
2022-11-29T09:53:12.329Z,11.20
2022-11-29T09:55:43.206Z,16.98
2022-11-29T09:58:16.019Z,12.98
2022-11-29T10:00:49.822Z,7.57
2022-11-29T10:03:25.683Z,9.70
2022-11-29T10:06:03.199Z,9.25
2022-11-29T10:08:37.213Z,11.57
2022-11-29T10:11:16.121Z,9.15
2022-11-29T10:13:51.634Z,9.15
2022-11-29T10:16:43.662Z,10.85
2022-11-29T10:19:22.430Z,11.38
2022-11-29T10:22:02.237Z,13.32
2022-11-29T10:24:30.538Z,11.77
2022-11-29T10:26:58.670Z,14.45
2022-11-29T10:29:26.918Z,12.23
2022-11-29T10:31:56.985Z,16.23
2022-11-29T10:34:26.205Z,11.07
2022-11-29T10:37:00.009Z,20.00
2022-11-29T10:39:59.931Z,10.38
2022-11-29T10:42:48.414Z,10.70
2022-11-29T10:45:23.982Z,8.38
2022-11-29T10:48:04.392Z,10.48
2022-11-29T10:50:35.281Z,10.30
2022-11-29T10:53:08.694Z,13.25
2022-11-29T10:55:54.060Z,15.27
2022-11-29T10:58:28.443Z,9.82
2022-11-29T11:01:07.816Z,8.77
2022-11-29T11:03:41.606Z,10.35
2022-11-29T11:06:13.297Z,18.00
2022-11-29T11:08:54.264Z,15.57
2022-11-29T11:11:34.857Z,13.52
2022-11-29T11:14:23.607Z,13.18
2022-11-29T11:16:52.051Z,12.32
2022-11-29T11:19:31.771Z,12.07
2022-11-29T11:22:01.739Z,14.93
2022-11-29T11:24:32.942Z,11.32
2022-11-29T11:27:01.315Z,10.02
2022-11-29T11:29:44.054Z,9.82
2022-11-29T11:32:20.123Z,8.20
2022-11-29T11:35:02.605Z,11.63
2022-11-29T11:37:32.555Z,10.27
2022-11-29T11:40:29.512Z,14.05
2022-11-29T11:42:59.516Z,12.10
2022-11-29T11:45:39.055Z,12.43
2022-11-29T11:48:16.936Z,9.68
2022-11-29T11:50:52.613Z,10.75
2022-11-29T11:53:21.896Z,9.95
2022-11-29T11:56:02.635Z,13.93
2022-11-29T11:58:44.467Z,20.60
2022-11-29T12:01:25.709Z,28.10
2022-11-29T12:04:19.562Z,26.63
2022-11-29T12:07:03.171Z,25.42
2022-11-29T12:09:52.960Z,22.45
2022-11-29T12:12:30.945Z,18.20
2022-11-29T12:15:20.578Z,20.45
2022-11-29T12:17:56.996Z,18.30
2022-11-29T12:20:38.026Z,26.17
2022-11-29T12:23:11.825Z,21.52
2022-11-29T12:26:34.484Z,24.27
2022-11-29T12:29:03.272Z,19.58
2022-11-29T12:31:44.688Z,17.63
2022-11-29T12:34:42.987Z,18.67
2022-11-29T12:37:33.035Z,21.95
2022-11-29T12:40:32.775Z,17.08
2022-11-29T12:43:04.004Z,17.45
2022-11-29T12:45:31.804Z,19.70
2022-11-29T12:48:27.813Z,21.65
2022-11-29T12:51:53.409Z,24.95
2022-11-29T12:54:29.876Z,24.13
2022-11-29T12:57:29.704Z,19.30
2022-11-29T13:00:13.468Z,26.60
2022-11-29T13:03:05.976Z,30.35
2022-11-29T13:06:03.248Z,30.15
2022-11-29T13:08:37.103Z,33.75
2022-11-29T13:11:31.898Z,34.08
2022-11-29T13:14:42.569Z,39.47
2022-11-29T13:17:25.604Z,39.75
2022-11-29T13:19:58.933Z,42.08
2022-11-29T13:22:36.295Z,43.72
2022-11-29T13:25:13.451Z,39.63
2022-11-29T13:27:59.506Z,39.35
2022-11-29T13:30:27.405Z,41.85
2022-11-29T13:33:06.357Z,43.90
2022-11-29T13:36:17.245Z,40.28
2022-11-29T13:39:09.579Z,36.78
2022-11-29T13:41:46.228Z,30.60
2022-11-29T13:44:32.342Z,38.47
2022-11-29T13:47:11.043Z,25.77
2022-11-29T13:50:32.711Z,38.03
2022-11-29T13:53:19.131Z,40.28
2022-11-29T13:56:00.163Z,27.70
2022-11-29T13:58:36.867Z,33.53
2022-11-29T14:01:12.409Z,39.25
2022-11-29T14:03:48.317Z,34.40
2022-11-29T14:06:21.336Z,31.90
2022-11-29T14:09:19.568Z,31.98
2022-11-29T14:11:53.070Z,26.60
2022-11-29T14:14:47.233Z,27.40
2022-11-29T14:17:36.692Z,32.38
2022-11-29T14:20:22.964Z,28.38
2022-11-29T14:23:05.930Z,22.83
2022-11-29T14:25:53.317Z,28.50
2022-11-29T14:28:29.745Z,26.33
2022-11-29T14:31:01.902Z,28.58
2022-11-29T14:33:39.057Z,25.67
2022-11-29T14:36:17.942Z,23.58
2022-11-29T14:38:57.753Z,23.15
2022-11-29T14:41:37.362Z,26.20
2022-11-29T14:44:14.335Z,22.63
2022-11-29T14:46:42.492Z,23.25
2022-11-29T14:49:22.273Z,19.10
2022-11-29T14:52:14.950Z,22.70
2022-11-29T14:55:00.418Z,23.30
2022-11-29T15:00:49.755Z,22.70
2022-11-29T15:03:19.959Z,18.95
2022-11-29T15:05:56.993Z,21.65
2022-11-29T15:08:35.990Z,18.80
2022-11-29T15:11:30.925Z,19.95
2022-11-29T15:14:09.917Z,15.73
2022-11-29T15:17:06.862Z,16.90
2022-11-29T15:19:54.081Z,16.65
2022-11-29T15:22:30.420Z,22.52
2022-11-29T15:25:02.807Z,21.00
2022-11-29T15:27:30.710Z,18.95
2022-11-29T15:30:00.021Z,21.77
2022-11-29T15:32:31.138Z,20.30
2022-11-29T15:34:59.619Z,18.70
2022-11-29T15:37:37.732Z,18.65
2022-11-29T15:40:16.466Z,21.00
2022-11-29T15:43:00.471Z,19.02
2022-11-29T15:45:35.374Z,20.30
2022-11-29T15:48:13.945Z,14.98
2022-11-29T15:50:46.933Z,15.02
2022-11-29T15:53:22.390Z,18.70
2022-11-29T15:55:52.316Z,19.33
2022-11-29T15:58:20.913Z,16.95
2022-11-29T16:00:50.004Z,21.27
2022-11-29T16:03:30.300Z,19.83
2022-11-29T16:06:15.535Z,19.80
2022-11-29T16:11:17.859Z,24.27
2022-11-29T16:14:12.367Z,19.02
2022-11-29T16:16:41.624Z,18.67
2022-11-29T16:19:33.052Z,16.35
2022-11-29T16:22:09.991Z,20.13
2022-11-29T16:24:40.059Z,21.77
2022-11-29T16:27:08.832Z,18.13
2022-11-29T16:29:45.268Z,21.92
2022-11-29T16:32:30.424Z,23.05
2022-11-29T16:37:42.485Z,18.77
2022-11-29T16:40:36.534Z,21.40
2022-11-29T16:43:04.456Z,25.45
2022-11-29T16:45:35.060Z,22.13
2022-11-29T16:48:03.416Z,16.63
2022-11-29T16:50:35.103Z,19.02
2022-11-29T16:53:37.886Z,19.67
2022-11-29T16:56:08.714Z,16.10
2022-11-29T16:58:41.701Z,17.25
2022-11-29T17:01:26.815Z,19.95
2022-11-29T17:03:56.365Z,18.50
2022-11-29T17:06:25.062Z,20.33
2022-11-29T17:08:54.759Z,19.00
2022-11-29T17:11:23.196Z,14.30
2022-11-29T17:13:51.677Z,18.75
2022-11-29T17:16:21.814Z,19.48
2022-11-29T17:18:49.873Z,21.17
2022-11-29T17:21:26.239Z,19.30
2022-11-29T17:23:54.563Z,14.52
2022-11-29T17:26:23.285Z,21.02
2022-11-29T17:28:52.059Z,20.40
2022-11-29T17:31:24.865Z,17.80
2022-11-29T17:36:22.906Z,15.18
2022-11-29T17:38:50.840Z,23.20
2022-11-29T17:41:22.618Z,12.30
2022-11-29T17:43:51.855Z,14.95
2022-11-29T17:46:28.063Z,22.08
2022-11-29T17:48:56.561Z,18.15
2022-11-29T17:54:13.363Z,18.92
2022-11-29T17:56:41.162Z,24.40
2022-11-29T17:59:09.157Z,27.45
2022-11-29T18:01:37.477Z,40.17
2022-11-29T18:04:06.500Z,42.78
2022-11-29T18:06:39.661Z,48.20
2022-11-29T18:09:09.657Z,48.92
2022-11-29T18:11:48.605Z,56.20
2022-11-29T18:14:24.086Z,53.55
2022-11-29T18:16:52.535Z,55.83
2022-11-29T18:19:22.243Z,54.05
2022-11-29T18:21:50.603Z,58.38
2022-11-29T18:24:18.872Z,56.45
2022-11-29T18:26:46.882Z,58.78
2022-11-29T18:29:14.589Z,58.80
2022-11-29T18:31:44.927Z,64.55
2022-11-29T18:34:14.265Z,53.47
2022-11-29T18:36:44.453Z,55.50
2022-11-29T18:39:17.327Z,62.83
2022-11-29T18:41:51.263Z,60.15
2022-11-29T18:44:21.762Z,60.75
2022-11-29T18:46:49.808Z,67.00
2022-11-29T18:49:18.768Z,68.38
2022-11-29T18:51:47.777Z,60.47
2022-11-29T18:54:17.177Z,51.75
2022-11-29T18:56:45.793Z,59.72
2022-11-29T18:59:18.446Z,46.05
2022-11-29T19:01:48.010Z,48.38
2022-11-29T19:04:20.916Z,46.33
2022-11-29T19:06:49.553Z,48.30
2022-11-29T19:09:21.491Z,40.00
2022-11-29T19:11:50.207Z,54.17
2022-11-29T19:14:19.280Z,42.05
2022-11-29T19:16:48.632Z,42.50
2022-11-29T19:19:18.830Z,43.55
2022-11-29T19:21:46.701Z,40.83
2022-11-29T19:24:16.011Z,38.40
2022-11-29T19:26:45.298Z,43.47
2022-11-29T19:29:14.014Z,39.80
2022-11-29T19:31:42.682Z,36.72
2022-11-29T19:34:10.793Z,43.25
2022-11-29T19:36:43.600Z,42.33
2022-11-29T19:39:16.452Z,37.70
2022-11-29T19:41:47.117Z,50.15
2022-11-29T19:44:15.252Z,33.70
2022-11-29T19:46:47.163Z,35.78
2022-11-29T19:49:15.282Z,39.58
2022-11-29T19:51:44.000Z,33.58
2022-11-29T19:54:12.355Z,37.38
2022-11-29T19:56:40.781Z,39.90
2022-11-29T19:59:09.166Z,31.83
2022-11-29T20:01:41.327Z,35.45
2022-11-29T20:04:10.895Z,34.72
2022-11-29T20:06:39.668Z,32.75
2022-11-29T20:09:07.954Z,29.60
2022-11-29T20:11:36.152Z,28.70
2022-11-29T20:14:05.873Z,31.73
2022-11-29T20:16:34.250Z,34.65
2022-11-29T20:19:02.340Z,31.25
2022-11-29T20:21:34.226Z,30.92
2022-11-29T20:24:04.977Z,36.70
2022-11-29T20:26:35.282Z,29.00
2022-11-29T20:29:04.264Z,29.90
2022-11-29T20:31:33.876Z,30.15
2022-11-29T20:34:02.429Z,26.40
2022-11-29T20:36:53.265Z,24.60
2022-11-29T20:39:51.979Z,22.20
2022-11-29T20:42:30.480Z,28.27
2022-11-29T20:45:08.804Z,22.08
2022-11-29T20:47:53.908Z,25.65
2022-11-29T20:50:27.526Z,21.38
2022-11-29T20:53:38.694Z,18.15
2022-11-29T20:56:08.660Z,20.40
2022-11-29T20:58:36.771Z,23.95
2022-11-29T21:01:05.314Z,23.77
2022-11-29T21:03:33.159Z,16.13
2022-11-29T21:06:04.145Z,16.98
2022-11-29T21:08:32.888Z,20.30
2022-11-29T21:11:05.952Z,18.60
2022-11-29T21:13:34.265Z,15.02
2022-11-29T21:16:02.381Z,19.63
2022-11-29T21:18:31.759Z,13.95
2022-11-29T21:21:15.708Z,17.30
2022-11-29T21:23:53.787Z,15.23
2022-11-29T21:26:38.568Z,16.55
2022-11-29T21:29:16.542Z,18.58
2022-11-29T21:31:45.497Z,14.63
2022-11-29T21:34:13.666Z,14.32
2022-11-29T21:36:44.191Z,18.33
2022-11-29T21:39:17.293Z,17.42
2022-11-29T21:41:45.422Z,18.75
2022-11-29T21:44:13.380Z,17.30
2022-11-29T21:46:41.183Z,19.05
2022-11-29T21:49:09.113Z,24.90
2022-11-29T21:51:37.180Z,30.00
2022-11-29T21:54:07.159Z,36.38
2022-11-29T21:56:38.110Z,32.67
2022-11-29T21:59:06.097Z,21.27
2022-11-29T22:01:34.182Z,24.77
2022-11-29T22:04:02.056Z,22.23
2022-11-29T22:06:30.410Z,24.10
2022-11-29T22:09:00.138Z,29.50
2022-11-29T22:11:31.303Z,24.35
2022-11-29T22:14:15.936Z,24.15
2022-11-29T22:17:04.058Z,34.17
2022-11-29T22:19:36.595Z,23.73
2022-11-29T22:22:06.809Z,20.02
2022-11-29T22:24:36.801Z,13.52
2022-11-29T22:27:04.864Z,14.40
2022-11-29T22:29:32.767Z,18.23
2022-11-29T22:32:01.429Z,19.77
2022-11-29T22:34:29.688Z,16.77
2022-11-29T22:36:59.889Z,16.33
2022-11-29T22:39:27.759Z,12.88
2022-11-29T22:41:55.614Z,20.90
2022-11-29T22:44:24.613Z,19.23
2022-11-29T22:46:52.427Z,11.63
2022-11-29T22:49:20.464Z,19.83
2022-11-29T22:51:48.753Z,12.10
2022-11-29T22:54:17.520Z,12.13
2022-11-29T22:56:46.694Z,12.73
2022-11-29T22:59:14.696Z,13.55
2022-11-29T23:01:43.122Z,13.70
2022-11-29T23:04:12.343Z,11.63
2022-11-29T23:06:43.094Z,12.63
2022-11-29T23:09:16.716Z,10.00
2022-11-29T23:11:45.936Z,21.13
2022-11-29T23:14:14.219Z,12.27
2022-11-29T23:16:42.314Z,12.65
2022-11-29T23:19:10.379Z,12.45
2022-11-29T23:21:41.661Z,13.88
2022-11-29T23:24:09.637Z,8.93
2022-11-29T23:26:40.401Z,11.52
2022-11-29T23:29:10.556Z,10.30
2022-11-29T23:31:38.545Z,9.52
2022-11-29T23:34:06.556Z,10.90
2022-11-29T23:36:36.988Z,9.07
2022-11-29T23:39:06.855Z,11.38
2022-11-29T23:41:38.468Z,15.95
2022-11-29T23:44:07.061Z,9.38
2022-11-29T23:46:36.213Z,9.93
2022-11-29T23:49:04.347Z,10.45
2022-11-29T23:51:32.324Z,11.07
2022-11-29T23:54:00.161Z,10.82
2022-11-29T23:56:28.086Z,9.02
2022-11-29T23:58:55.963Z,10.50
